createdAt,value
2023-04-16T00:00:01.343Z,1009.86
2023-04-16T00:01:01.290Z,1009.87
2023-04-16T00:02:01.323Z,1009.86
2023-04-16T00:03:01.456Z,1009.87
2023-04-16T00:04:01.706Z,1009.88
2023-04-16T00:05:01.385Z,1009.89
2023-04-16T00:06:01.230Z,1009.90
2023-04-16T00:07:01.217Z,1009.91
2023-04-16T00:08:01.207Z,1009.91
2023-04-16T00:09:01.186Z,1009.91
2023-04-16T00:10:01.204Z,1009.92
2023-04-16T00:11:01.164Z,1009.93
2023-04-16T00:12:01.177Z,1009.94
2023-04-16T00:13:01.152Z,1009.96
2023-04-16T00:14:01.209Z,1009.96
2023-04-16T00:15:01.151Z,1009.97
2023-04-16T00:16:01.161Z,1009.98
2023-04-16T00:17:01.190Z,1009.98
2023-04-16T00:18:01.126Z,1009.97
2023-04-16T00:19:01.085Z,1009.97
2023-04-16T00:20:01.118Z,1009.98
2023-04-16T00:21:01.061Z,1009.97
2023-04-16T00:22:01.067Z,1009.97
2023-04-16T00:23:01.051Z,1009.97
2023-04-16T00:24:01.085Z,1009.96
2023-04-16T00:25:01.060Z,1009.98
2023-04-16T00:26:01.015Z,1009.95
2023-04-16T00:27:01.008Z,1009.99
2023-04-16T00:28:01.029Z,1009.98
2023-04-16T00:29:01.003Z,1009.99
2023-04-16T00:30:00.989Z,1010.00
2023-04-16T00:31:01.052Z,1009.99
2023-04-16T00:32:00.961Z,1009.99
2023-04-16T00:33:00.986Z,1009.97
2023-04-16T00:34:00.934Z,1009.98
2023-04-16T00:35:00.942Z,1009.97
2023-04-16T00:36:00.926Z,1009.97
2023-04-16T00:37:00.904Z,1009.98
2023-04-16T00:38:00.898Z,1009.99
2023-04-16T00:39:00.903Z,1010.00
2023-04-16T00:40:00.898Z,1010.00
2023-04-16T00:41:00.872Z,1010.02
2023-04-16T00:42:00.883Z,1010.02
2023-04-16T00:43:00.841Z,1010.02
2023-04-16T00:44:00.835Z,1010.01
2023-04-16T00:45:00.890Z,1010.01
2023-04-16T00:46:00.881Z,1010.02
2023-04-16T00:47:00.795Z,1010.03
2023-04-16T00:48:00.888Z,1010.04
2023-04-16T00:49:00.787Z,1010.05
2023-04-16T00:50:00.790Z,1010.05
2023-04-16T00:51:00.762Z,1010.07
2023-04-16T00:52:00.770Z,1010.06
2023-04-16T00:53:00.741Z,1010.05
2023-04-16T00:54:00.749Z,1010.03
2023-04-16T00:55:00.710Z,1010.03
2023-04-16T00:56:00.738Z,1010.03
2023-04-16T00:57:00.698Z,1010.03
2023-04-16T00:58:00.725Z,1010.03
2023-04-16T00:59:00.674Z,1010.03
2023-04-16T01:00:00.690Z,1010.03
2023-04-16T01:01:00.663Z,1010.04
2023-04-16T01:02:00.728Z,1010.05
2023-04-16T01:03:00.692Z,1010.06
2023-04-16T01:04:00.719Z,1010.06
2023-04-16T01:05:00.671Z,1010.07
2023-04-16T01:06:00.604Z,1010.08
2023-04-16T01:07:00.610Z,1010.09
2023-04-16T01:08:00.596Z,1010.09
2023-04-16T01:09:00.606Z,1010.09
2023-04-16T01:10:00.569Z,1010.09
2023-04-16T01:11:00.565Z,1010.09
2023-04-16T01:12:00.567Z,1010.09
2023-04-16T01:13:00.551Z,1010.11
2023-04-16T01:14:00.599Z,1010.11
2023-04-16T01:15:00.519Z,1010.12
2023-04-16T01:16:00.541Z,1010.14
2023-04-16T01:17:00.507Z,1010.15
2023-04-16T01:18:00.522Z,1010.16
2023-04-16T01:19:00.507Z,1010.17
2023-04-16T01:20:00.460Z,1010.18
2023-04-16T01:21:00.471Z,1010.19
2023-04-16T01:22:00.441Z,1010.20
2023-04-16T01:23:00.441Z,1010.20
2023-04-16T01:24:00.453Z,1010.22
2023-04-16T01:25:00.416Z,1010.22
2023-04-16T01:26:00.408Z,1010.22
2023-04-16T01:27:00.438Z,1010.22
2023-04-16T01:28:00.390Z,1010.22
2023-04-16T01:29:00.425Z,1010.23
2023-04-16T01:30:00.401Z,1010.23
2023-04-16T01:31:00.392Z,1010.23
2023-04-16T01:32:00.356Z,1010.24
2023-04-16T01:33:00.366Z,1010.24
2023-04-16T01:34:00.347Z,1010.23
2023-04-16T01:35:00.315Z,1010.22
2023-04-16T01:36:00.301Z,1010.23
2023-04-16T01:37:00.281Z,1010.25
2023-04-16T01:38:00.293Z,1010.25
2023-04-16T01:39:00.289Z,1010.27
2023-04-16T01:40:00.312Z,1010.26
2023-04-16T01:41:00.273Z,1010.27
2023-04-16T01:42:00.230Z,1010.27
2023-04-16T01:43:00.271Z,1010.27
2023-04-16T01:44:00.207Z,1010.26
2023-04-16T01:45:00.232Z,1010.26
2023-04-16T01:46:00.246Z,1010.26
2023-04-16T01:47:00.306Z,1010.26
2023-04-16T01:48:00.270Z,1010.26
2023-04-16T01:49:00.167Z,1010.26
2023-04-16T01:50:00.207Z,1010.27
2023-04-16T01:51:00.152Z,1010.28
2023-04-16T01:52:00.169Z,1010.28
2023-04-16T01:53:00.174Z,1010.28
2023-04-16T01:54:00.145Z,1010.28
2023-04-16T01:55:00.131Z,1010.29
2023-04-16T01:56:00.096Z,1010.30
2023-04-16T01:57:00.087Z,1010.33
2023-04-16T01:58:00.101Z,1010.34
2023-04-16T01:59:00.091Z,1010.34
2023-04-16T02:00:00.049Z,1010.36
2023-04-16T02:01:00.068Z,1010.37
2023-04-16T02:02:00.115Z,1010.38
2023-04-16T02:03:00.244Z,1010.38
2023-04-16T02:04:00.227Z,1010.38
2023-04-16T02:05:00.004Z,1010.38
2023-04-16T02:06:00.002Z,1010.36
2023-04-16T02:06:59.974Z,1010.38
2023-04-16T02:07:59.980Z,1010.38
2023-04-16T02:08:59.953Z,1010.39
2023-04-16T02:09:59.957Z,1010.39
2023-04-16T02:10:59.922Z,1010.40
2023-04-16T02:11:59.926Z,1010.41
2023-04-16T02:12:59.933Z,1010.43
2023-04-16T02:13:59.903Z,1010.42
2023-04-16T02:14:59.891Z,1010.44
2023-04-16T02:15:59.931Z,1010.45
2023-04-16T02:16:59.863Z,1010.46
2023-04-16T02:17:59.951Z,1010.46
2023-04-16T02:18:59.849Z,1010.46
2023-04-16T02:19:59.837Z,1010.47
2023-04-16T02:20:59.841Z,1010.47
2023-04-16T02:21:59.823Z,1010.48
2023-04-16T02:22:59.872Z,1010.49
2023-04-16T02:23:59.804Z,1010.48
2023-04-16T02:24:59.831Z,1010.47
2023-04-16T02:25:59.768Z,1010.47
2023-04-16T02:26:59.765Z,1010.47
2023-04-16T02:27:59.788Z,1010.47
2023-04-16T02:28:59.743Z,1010.48
2023-04-16T02:29:59.736Z,1010.48
2023-04-16T02:30:59.737Z,1010.48
2023-04-16T02:31:59.834Z,1010.48
2023-04-16T02:32:59.793Z,1010.48
2023-04-16T02:33:59.694Z,1010.48
2023-04-16T02:34:59.675Z,1010.49
2023-04-16T02:35:59.669Z,1010.52
2023-04-16T02:36:59.695Z,1010.52
2023-04-16T02:37:59.694Z,1010.52
2023-04-16T02:38:59.652Z,1010.53
2023-04-16T02:39:59.635Z,1010.52
2023-04-16T02:40:59.648Z,1010.54
2023-04-16T02:41:59.633Z,1010.53
2023-04-16T02:42:59.619Z,1010.55
2023-04-16T02:43:59.583Z,1010.56
2023-04-16T02:44:59.589Z,1010.56
2023-04-16T02:45:59.632Z,1010.57
2023-04-16T02:46:59.561Z,1010.57
2023-04-16T02:47:59.606Z,1010.57
2023-04-16T02:48:59.531Z,1010.57
2023-04-16T02:49:59.513Z,1010.57
2023-04-16T02:50:59.513Z,1010.57
2023-04-16T02:51:59.529Z,1010.58
2023-04-16T02:52:59.515Z,1010.59
2023-04-16T02:53:59.479Z,1010.59
2023-04-16T02:54:59.542Z,1010.59
2023-04-16T02:55:59.465Z,1010.60
2023-04-16T02:56:59.466Z,1010.60
2023-04-16T02:57:59.487Z,1010.61
2023-04-16T02:58:59.444Z,1010.60
2023-04-16T02:59:59.418Z,1010.61
2023-04-16T03:00:59.497Z,1010.61
2023-04-16T03:01:59.454Z,1010.62
2023-04-16T03:02:59.501Z,1010.63
2023-04-16T03:03:59.415Z,1010.62
2023-04-16T03:04:59.406Z,1010.63
2023-04-16T03:05:59.403Z,1010.62
2023-04-16T03:06:59.376Z,1010.64
2023-04-16T03:07:59.353Z,1010.65
2023-04-16T03:08:59.324Z,1010.67
2023-04-16T03:09:59.327Z,1010.67
2023-04-16T03:10:59.312Z,1010.68
2023-04-16T03:11:59.309Z,1010.69
2023-04-16T03:12:59.296Z,1010.68
2023-04-16T03:13:59.275Z,1010.70
2023-04-16T03:14:59.284Z,1010.70
2023-04-16T03:15:59.276Z,1010.69
2023-04-16T03:16:59.295Z,1010.70
2023-04-16T03:17:59.298Z,1010.71
2023-04-16T03:18:59.257Z,1010.71
2023-04-16T03:19:59.214Z,1010.72
2023-04-16T03:20:59.201Z,1010.74
2023-04-16T03:21:59.249Z,1010.75
2023-04-16T03:22:59.171Z,1010.78
2023-04-16T03:23:59.174Z,1010.78
2023-04-16T03:24:59.159Z,1010.79
2023-04-16T03:25:59.163Z,1010.81
2023-04-16T03:26:59.140Z,1010.79
2023-04-16T03:27:59.201Z,1010.80
2023-04-16T03:28:59.126Z,1010.80
2023-04-16T03:29:59.140Z,1010.80
2023-04-16T03:30:59.119Z,1010.81
2023-04-16T03:31:59.092Z,1010.81
2023-04-16T03:32:59.107Z,1010.81
2023-04-16T03:33:59.072Z,1010.82
2023-04-16T03:34:59.064Z,1010.83
2023-04-16T03:35:59.040Z,1010.82
2023-04-16T03:36:59.109Z,1010.82
2023-04-16T03:37:59.060Z,1010.81
2023-04-16T03:38:59.017Z,1010.82
2023-04-16T03:39:59.024Z,1010.83
2023-04-16T03:40:59.023Z,1010.86
2023-04-16T03:41:59.006Z,1010.88
2023-04-16T03:42:59.027Z,1010.87
2023-04-16T03:43:58.974Z,1010.88
2023-04-16T03:44:58.921Z,1010.87
2023-04-16T03:45:58.950Z,1010.89
2023-04-16T03:46:59.092Z,1010.91
2023-04-16T03:47:59.085Z,1010.92
2023-04-16T03:48:58.929Z,1010.93
2023-04-16T03:49:58.903Z,1010.93
2023-04-16T03:50:58.847Z,1010.95
2023-04-16T03:51:58.827Z,1010.96
2023-04-16T03:52:58.895Z,1010.96
2023-04-16T03:53:58.856Z,1010.96
2023-04-16T03:54:58.819Z,1010.98
2023-04-16T03:55:58.788Z,1010.98
2023-04-16T03:56:58.782Z,1011.00
2023-04-16T03:57:58.807Z,1011.03
2023-04-16T03:58:58.774Z,1011.04
2023-04-16T03:59:58.748Z,1011.05
2023-04-16T04:00:58.742Z,1011.05
2023-04-16T04:01:58.828Z,1011.06
2023-04-16T04:02:58.891Z,1011.07
2023-04-16T04:03:58.949Z,1011.08
2023-04-16T04:04:58.710Z,1011.09
2023-04-16T04:05:58.686Z,1011.09
2023-04-16T04:06:58.676Z,1011.10
2023-04-16T04:07:58.699Z,1011.12
2023-04-16T04:08:58.666Z,1011.14
2023-04-16T04:09:58.642Z,1011.14
2023-04-16T04:10:58.636Z,1011.15
2023-04-16T04:11:58.622Z,1011.16
2023-04-16T04:12:58.648Z,1011.17
2023-04-16T04:13:58.605Z,1011.16
2023-04-16T04:14:58.637Z,1011.16
2023-04-16T04:15:58.602Z,1011.19
2023-04-16T04:16:58.585Z,1011.20
2023-04-16T04:17:58.672Z,1011.23
2023-04-16T04:18:58.556Z,1011.23
2023-04-16T04:20:01.279Z,1011.22
2023-04-16T04:20:58.535Z,1011.24
2023-04-16T04:21:58.523Z,1011.24
2023-04-16T04:22:58.532Z,1011.24
2023-04-16T04:23:58.510Z,1011.25
2023-04-16T04:24:58.502Z,1011.24
2023-04-16T04:25:58.550Z,1011.25
2023-04-16T04:26:58.478Z,1011.25
2023-04-16T04:27:58.493Z,1011.26
2023-04-16T04:28:58.447Z,1011.28
2023-04-16T04:29:58.464Z,1011.29
2023-04-16T04:30:58.435Z,1011.30
2023-04-16T04:31:58.480Z,1011.30
2023-04-16T04:32:58.494Z,1011.31
2023-04-16T04:33:58.399Z,1011.33
2023-04-16T04:34:58.389Z,1011.34
2023-04-16T04:35:58.397Z,1011.34
2023-04-16T04:36:58.361Z,1011.34
2023-04-16T04:37:58.419Z,1011.33
2023-04-16T04:38:58.341Z,1011.34
2023-04-16T04:39:58.345Z,1011.33
2023-04-16T04:40:58.329Z,1011.33
2023-04-16T04:41:58.375Z,1011.33
2023-04-16T04:42:58.368Z,1011.32
2023-04-16T04:43:58.305Z,1011.31
2023-04-16T04:44:58.284Z,1011.35
2023-04-16T04:45:58.334Z,1011.37
2023-04-16T04:46:58.287Z,1011.38
2023-04-16T04:47:58.282Z,1011.40
2023-04-16T04:48:58.243Z,1011.41
2023-04-16T04:49:58.223Z,1011.43
2023-04-16T04:50:58.230Z,1011.42
2023-04-16T04:51:58.221Z,1011.44
2023-04-16T04:52:58.235Z,1011.45
2023-04-16T04:53:58.183Z,1011.46
2023-04-16T04:54:58.176Z,1011.47
2023-04-16T04:56:05.503Z,1011.48
2023-04-16T04:56:58.158Z,1011.48
2023-04-16T04:57:58.165Z,1011.50
2023-04-16T04:58:58.132Z,1011.51
2023-04-16T04:59:58.125Z,1011.52
2023-04-16T05:00:58.146Z,1011.54
2023-04-16T05:01:58.125Z,1011.54
2023-04-16T05:02:58.204Z,1011.56
2023-04-16T05:03:58.114Z,1011.57
2023-04-16T05:04:58.183Z,1011.57
2023-04-16T05:05:58.120Z,1011.60
2023-04-16T05:06:58.063Z,1011.58
2023-04-16T05:07:58.080Z,1011.59
2023-04-16T05:08:58.048Z,1011.60
2023-04-16T05:09:58.103Z,1011.60
2023-04-16T05:10:58.020Z,1011.62
2023-04-16T05:11:58.012Z,1011.64
2023-04-16T05:12:58.067Z,1011.66
2023-04-16T05:13:58.006Z,1011.67
2023-04-16T05:14:57.970Z,1011.69
2023-04-16T05:15:58.010Z,1011.69
2023-04-16T05:16:57.996Z,1011.70
2023-04-16T05:17:58.034Z,1011.71
2023-04-16T05:18:57.977Z,1011.70
2023-04-16T05:19:57.964Z,1011.72
2023-04-16T05:20:57.941Z,1011.75
2023-04-16T05:21:57.909Z,1011.76
2023-04-16T05:22:57.885Z,1011.78
2023-04-16T05:23:57.872Z,1011.79
2023-04-16T05:24:57.869Z,1011.80
2023-04-16T05:25:57.890Z,1011.81
2023-04-16T05:26:57.855Z,1011.82
2023-04-16T05:27:57.852Z,1011.83
2023-04-16T05:28:57.848Z,1011.84
2023-04-16T05:29:57.828Z,1011.85
2023-04-16T05:30:57.870Z,1011.86
2023-04-16T05:31:57.795Z,1011.86
2023-04-16T05:32:57.833Z,1011.87
2023-04-16T05:33:57.784Z,1011.89
2023-04-16T05:34:57.776Z,1011.88
2023-04-16T05:35:57.750Z,1011.89
2023-04-16T05:36:57.762Z,1011.90
2023-04-16T05:37:57.762Z,1011.90
2023-04-16T05:38:57.753Z,1011.90
2023-04-16T05:39:57.722Z,1011.92
2023-04-16T05:40:57.707Z,1011.92
2023-04-16T05:41:57.719Z,1011.92
2023-04-16T05:42:57.705Z,1011.91
2023-04-16T05:43:57.692Z,1011.92
2023-04-16T05:44:57.677Z,1011.92
2023-04-16T05:45:57.751Z,1011.92
2023-04-16T05:46:57.638Z,1011.92
2023-04-16T05:47:57.734Z,1011.93
2023-04-16T05:48:57.634Z,1011.93
2023-04-16T05:49:57.674Z,1011.94
2023-04-16T05:50:57.591Z,1011.94
2023-04-16T05:51:57.615Z,1011.93
2023-04-16T05:52:57.576Z,1011.93
2023-04-16T05:53:57.564Z,1011.96
2023-04-16T05:54:57.591Z,1011.94
2023-04-16T05:55:57.543Z,1011.97
2023-04-16T05:56:57.565Z,1011.97
2023-04-16T05:57:57.544Z,1011.97
2023-04-16T05:58:57.523Z,1011.97
2023-04-16T05:59:57.505Z,1011.99
2023-04-16T06:00:57.494Z,1012.01
2023-04-16T06:01:57.544Z,1012.01
2023-04-16T06:02:57.628Z,1012.03
2023-04-16T06:03:57.533Z,1012.05
2023-04-16T06:04:57.488Z,1012.06
2023-04-16T06:05:57.540Z,1012.08
2023-04-16T06:06:57.428Z,1012.09
2023-04-16T06:07:57.452Z,1012.10
2023-04-16T06:08:57.416Z,1012.10
2023-04-16T06:09:57.422Z,1012.12
2023-04-16T06:10:57.387Z,1012.13
2023-04-16T06:11:57.374Z,1012.14
2023-04-16T06:12:57.452Z,1012.15
2023-04-16T06:13:57.357Z,1012.15
2023-04-16T06:14:57.351Z,1012.16
2023-04-16T06:15:57.358Z,1012.17
2023-04-16T06:16:57.352Z,1012.18
2023-04-16T06:17:59.514Z,1012.20
2023-04-16T06:18:57.310Z,1012.21
2023-04-16T06:19:57.294Z,1012.21
2023-04-16T06:20:57.290Z,1012.22
2023-04-16T06:21:57.283Z,1012.22
2023-04-16T06:22:57.307Z,1012.23
2023-04-16T06:23:57.332Z,1012.22
2023-04-16T06:24:57.244Z,1012.24
2023-04-16T06:25:57.282Z,1012.24
2023-04-16T06:26:57.278Z,1012.25
2023-04-16T06:27:57.221Z,1012.26
2023-04-16T06:28:57.240Z,1012.26
2023-04-16T06:29:57.191Z,1012.27
2023-04-16T06:30:57.183Z,1012.29
2023-04-16T06:31:57.200Z,1012.30
2023-04-16T06:32:57.218Z,1012.31
2023-04-16T06:33:57.148Z,1012.31
2023-04-16T06:34:57.135Z,1012.31
2023-04-16T06:35:57.132Z,1012.31
2023-04-16T06:36:57.123Z,1012.31
2023-04-16T06:37:57.175Z,1012.30
2023-04-16T06:38:57.123Z,1012.32
2023-04-16T06:39:57.109Z,1012.32
2023-04-16T06:40:57.083Z,1012.32
2023-04-16T06:41:57.108Z,1012.32
2023-04-16T06:42:57.105Z,1012.32
2023-04-16T06:43:57.064Z,1012.33
2023-04-16T06:44:57.049Z,1012.34
2023-04-16T06:45:57.017Z,1012.34
2023-04-16T06:46:57.051Z,1012.34
2023-04-16T06:47:57.032Z,1012.34
2023-04-16T06:48:57.040Z,1012.35
2023-04-16T06:49:56.977Z,1012.36
2023-04-16T06:50:56.994Z,1012.36
2023-04-16T06:51:56.961Z,1012.38
2023-04-16T06:52:56.970Z,1012.35
2023-04-16T06:53:56.974Z,1012.36
2023-04-16T06:54:56.973Z,1012.38
2023-04-16T06:55:56.918Z,1012.37
2023-04-16T06:56:56.929Z,1012.40
2023-04-16T06:57:56.965Z,1012.42
2023-04-16T06:58:56.884Z,1012.42
2023-04-16T06:59:56.880Z,1012.44
2023-04-16T07:00:56.889Z,1012.45
2023-04-16T07:01:56.986Z,1012.46
2023-04-16T07:02:58.577Z,1012.47
2023-04-16T07:03:57.089Z,1012.48
2023-04-16T07:04:56.840Z,1012.49
2023-04-16T07:05:56.855Z,1012.49
2023-04-16T07:06:56.835Z,1012.49
2023-04-16T07:07:56.797Z,1012.50
2023-04-16T07:08:56.793Z,1012.50
2023-04-16T07:09:56.775Z,1012.52
2023-04-16T07:10:56.776Z,1012.53
2023-04-16T07:11:56.791Z,1012.54
2023-04-16T07:12:56.752Z,1012.54
2023-04-16T07:13:56.728Z,1012.56
2023-04-16T07:14:56.753Z,1012.55
2023-04-16T07:15:56.717Z,1012.53
2023-04-16T07:16:56.778Z,1012.55
2023-04-16T07:17:56.745Z,1012.55
2023-04-16T07:18:56.692Z,1012.55
2023-04-16T07:19:57.312Z,1012.58
2023-04-16T07:20:56.825Z,1012.58
2023-04-16T07:21:56.865Z,1012.59
2023-04-16T07:22:56.694Z,1012.60
2023-04-16T07:23:56.646Z,1012.61
2023-04-16T07:24:56.680Z,1012.63
2023-04-16T07:25:56.689Z,1012.63
2023-04-16T07:26:56.682Z,1012.65
2023-04-16T07:27:56.785Z,1012.67
2023-04-16T07:28:56.648Z,1012.68
2023-04-16T07:29:56.590Z,1012.69
2023-04-16T07:30:56.594Z,1012.70
2023-04-16T07:31:56.609Z,1012.69
2023-04-16T07:32:56.677Z,1012.70
2023-04-16T07:33:56.535Z,1012.70
2023-04-16T07:34:56.534Z,1012.72
2023-04-16T07:35:56.523Z,1012.73
2023-04-16T07:36:56.574Z,1012.75
2023-04-16T07:37:56.507Z,1012.75
2023-04-16T07:38:56.491Z,1012.75
2023-04-16T07:39:57.360Z,1012.76
2023-04-16T07:40:56.468Z,1012.76
2023-04-16T07:41:56.524Z,1012.77
2023-04-16T07:42:56.443Z,1012.79
2023-04-16T07:43:56.464Z,1012.80
2023-04-16T07:44:56.416Z,1012.83
2023-04-16T07:45:56.448Z,1012.83
2023-04-16T07:46:56.474Z,1012.85
2023-04-16T07:47:56.428Z,1012.84
2023-04-16T07:48:56.377Z,1012.85
2023-04-16T07:49:56.387Z,1012.86
2023-04-16T07:50:56.384Z,1012.86
2023-04-16T07:51:56.376Z,1012.88
2023-04-16T07:52:56.354Z,1012.88
2023-04-16T07:53:56.341Z,1012.90
2023-04-16T07:54:56.328Z,1012.90
2023-04-16T07:55:56.304Z,1012.90
2023-04-16T07:56:56.342Z,1012.91
2023-04-16T07:57:56.286Z,1012.93
2023-04-16T07:58:56.301Z,1012.93
2023-04-16T07:59:56.249Z,1012.94
2023-04-16T08:00:56.263Z,1012.93
2023-04-16T08:01:56.269Z,1012.95
2023-04-16T08:02:56.375Z,1012.95
2023-04-16T08:03:56.351Z,1012.96
2023-04-16T08:04:56.309Z,1012.95
2023-04-16T08:05:56.201Z,1012.97
2023-04-16T08:06:56.270Z,1012.99
2023-04-16T08:07:56.173Z,1012.99
2023-04-16T08:08:56.162Z,1013.01
2023-04-16T08:09:56.162Z,1013.01
2023-04-16T08:10:56.198Z,1013.02
2023-04-16T08:11:56.164Z,1013.02
2023-04-16T08:12:56.125Z,1013.02
2023-04-16T08:13:56.179Z,1013.04
2023-04-16T08:14:56.102Z,1013.06
2023-04-16T08:15:56.153Z,1013.05
2023-04-16T08:16:56.121Z,1013.07
2023-04-16T08:17:56.124Z,1013.08
2023-04-16T08:18:56.060Z,1013.09
2023-04-16T08:19:56.071Z,1013.10
2023-04-16T08:20:56.043Z,1013.10
2023-04-16T08:21:56.055Z,1013.11
2023-04-16T08:22:56.064Z,1013.14
2023-04-16T08:23:56.047Z,1013.16
2023-04-16T08:24:56.017Z,1013.16
2023-04-16T08:25:55.992Z,1013.16
2023-04-16T08:27:02.459Z,1013.19
2023-04-16T08:27:56.153Z,1013.19
2023-04-16T08:28:56.098Z,1013.21
2023-04-16T08:29:55.990Z,1013.22
2023-04-16T08:30:56.102Z,1013.22
2023-04-16T08:31:56.122Z,1013.23
2023-04-16T08:32:55.961Z,1013.26
2023-04-16T08:33:55.988Z,1013.25
2023-04-16T08:34:55.962Z,1013.26
2023-04-16T08:35:55.967Z,1013.27
2023-04-16T08:36:55.977Z,1013.29
2023-04-16T08:37:55.906Z,1013.30
2023-04-16T08:38:55.930Z,1013.31
2023-04-16T08:39:55.904Z,1013.32
2023-04-16T08:40:55.894Z,1013.34
2023-04-16T08:41:55.973Z,1013.34
2023-04-16T08:42:55.887Z,1013.31
2023-04-16T08:43:55.862Z,1013.33
2023-04-16T08:44:55.832Z,1013.35
2023-04-16T08:45:55.814Z,1013.36
2023-04-16T08:46:55.808Z,1013.37
2023-04-16T08:47:55.860Z,1013.38
2023-04-16T08:48:55.811Z,1013.39
2023-04-16T08:49:58.404Z,1013.40
2023-04-16T08:50:55.796Z,1013.41
2023-04-16T08:51:55.793Z,1013.41
2023-04-16T08:52:55.712Z,1013.42
2023-04-16T08:53:55.844Z,1013.43
2023-04-16T08:54:56.829Z,1013.43
2023-04-16T08:55:55.800Z,1013.42
2023-04-16T08:56:55.783Z,1013.44
2023-04-16T08:57:55.742Z,1013.44
2023-04-16T08:58:55.677Z,1013.45
2023-04-16T08:59:55.712Z,1013.46
2023-04-16T09:00:55.649Z,1013.47
2023-04-16T09:01:55.737Z,1013.46
2023-04-16T09:02:55.881Z,1013.47
2023-04-16T09:03:55.772Z,1013.49
2023-04-16T09:04:55.679Z,1013.51
2023-04-16T09:05:55.613Z,1013.51
2023-04-16T09:06:55.587Z,1013.53
2023-04-16T09:07:55.688Z,1013.53
2023-04-16T09:08:55.563Z,1013.55
2023-04-16T09:09:55.562Z,1013.57
2023-04-16T09:10:55.599Z,1013.57
2023-04-16T09:11:55.592Z,1013.59
2023-04-16T09:12:55.530Z,1013.57
2023-04-16T09:13:55.562Z,1013.60
2023-04-16T09:14:55.525Z,1013.60
2023-04-16T09:15:55.590Z,1013.61
2023-04-16T09:16:55.583Z,1013.60
2023-04-16T09:17:55.564Z,1013.62
2023-04-16T09:18:55.493Z,1013.63
2023-04-16T09:19:55.441Z,1013.63
2023-04-16T09:20:55.455Z,1013.64
2023-04-16T09:21:55.571Z,1013.64
2023-04-16T09:22:55.422Z,1013.64
2023-04-16T09:23:55.442Z,1013.65
2023-04-16T09:24:55.442Z,1013.66
2023-04-16T09:25:55.420Z,1013.67
2023-04-16T09:26:55.438Z,1013.68
2023-04-16T09:27:55.408Z,1013.70
2023-04-16T09:28:55.398Z,1013.71
2023-04-16T09:29:55.382Z,1013.70
2023-04-16T09:30:55.318Z,1013.73
2023-04-16T09:31:55.395Z,1013.73
2023-04-16T09:32:55.362Z,1013.73
2023-04-16T09:33:55.315Z,1013.73
2023-04-16T09:34:55.402Z,1013.75
2023-04-16T09:35:55.298Z,1013.73
2023-04-16T09:36:55.322Z,1013.72
2023-04-16T09:37:55.273Z,1013.74
2023-04-16T09:38:57.389Z,1013.73
2023-04-16T09:39:55.240Z,1013.76
2023-04-16T09:40:55.272Z,1013.75
2023-04-16T09:41:55.301Z,1013.77
2023-04-16T09:42:55.223Z,1013.78
2023-04-16T09:43:55.235Z,1013.80
2023-04-16T09:44:56.869Z,1013.81
2023-04-16T09:45:55.245Z,1013.79
2023-04-16T09:46:55.253Z,1013.82
2023-04-16T09:47:55.194Z,1013.84
2023-04-16T09:48:55.311Z,1013.88
2023-04-16T09:49:55.139Z,1013.88
2023-04-16T09:50:55.292Z,1013.89
2023-04-16T09:51:55.275Z,1013.90
2023-04-16T09:52:55.107Z,1013.89
2023-04-16T09:53:55.079Z,1013.88
2023-04-16T09:54:55.068Z,1013.88
2023-04-16T09:55:55.057Z,1013.88
2023-04-16T09:56:55.101Z,1013.88
2023-04-16T09:57:55.035Z,1013.88
2023-04-16T09:58:55.018Z,1013.89
2023-04-16T09:59:55.017Z,1013.88
2023-04-16T10:00:55.017Z,1013.89
2023-04-16T10:02:14.307Z,1013.89
2023-04-16T10:02:55.048Z,1013.89
2023-04-16T10:03:55.156Z,1013.91
2023-04-16T10:04:55.054Z,1013.91
2023-04-16T10:05:54.983Z,1013.90
2023-04-16T10:06:55.062Z,1013.91
2023-04-16T10:07:55.131Z,1013.90
2023-04-16T10:08:54.954Z,1013.92
2023-04-16T10:09:55.122Z,1013.93
2023-04-16T10:10:54.966Z,1013.93
2023-04-16T10:11:54.918Z,1013.93
2023-04-16T10:12:54.907Z,1013.94
2023-04-16T10:13:54.921Z,1013.94
2023-04-16T10:14:54.874Z,1013.95
2023-04-16T10:15:54.912Z,1013.97
2023-04-16T10:16:54.984Z,1013.99
2023-04-16T10:17:54.860Z,1014.01
2023-04-16T10:18:54.866Z,1014.01
2023-04-16T10:19:54.852Z,1014.01
2023-04-16T10:20:54.894Z,1014.02
2023-04-16T10:21:54.845Z,1014.02
2023-04-16T10:22:54.811Z,1014.02
2023-04-16T10:23:54.849Z,1014.02
2023-04-16T10:24:54.854Z,1014.02
2023-04-16T10:25:56.978Z,1014.02
2023-04-16T10:26:54.757Z,1014.02
2023-04-16T10:27:54.756Z,1014.02
2023-04-16T10:28:54.793Z,1014.02
2023-04-16T10:29:54.775Z,1014.03
2023-04-16T10:30:54.826Z,1014.04
2023-04-16T10:31:54.921Z,1014.05
2023-04-16T10:32:54.755Z,1014.05
2023-04-16T10:33:55.258Z,1014.05
2023-04-16T10:34:54.649Z,1014.04
2023-04-16T10:36:04.899Z,1014.05
2023-04-16T10:36:54.747Z,1014.05
2023-04-16T10:37:54.649Z,1014.04
2023-04-16T10:38:54.630Z,1014.05
2023-04-16T10:39:54.638Z,1014.04
2023-04-16T10:40:54.631Z,1014.04
2023-04-16T10:41:54.585Z,1014.05
2023-04-16T10:42:54.576Z,1014.05
2023-04-16T10:43:54.583Z,1014.04
2023-04-16T10:44:54.569Z,1014.03
2023-04-16T10:45:54.878Z,1014.04
2023-04-16T10:46:54.546Z,1014.03
2023-04-16T10:47:54.661Z,1014.03
2023-04-16T10:48:54.652Z,1014.03
2023-04-16T10:49:54.560Z,1014.02
2023-04-16T10:50:54.633Z,1014.05
2023-04-16T10:51:54.507Z,1014.06
2023-04-16T10:52:54.505Z,1014.08
2023-04-16T10:53:54.455Z,1014.09
2023-04-16T10:54:54.562Z,1014.10
2023-04-16T10:55:54.516Z,1014.10
2023-04-16T10:56:54.458Z,1014.11
2023-04-16T10:57:54.423Z,1014.10
2023-04-16T10:58:54.393Z,1014.10
2023-04-16T10:59:54.398Z,1014.11
2023-04-16T11:00:54.433Z,1014.12
2023-04-16T11:01:54.474Z,1014.12
2023-04-16T11:02:54.610Z,1014.13
2023-04-16T11:03:54.552Z,1014.14
2023-04-16T11:04:54.418Z,1014.15
2023-04-16T11:05:54.369Z,1014.15
2023-04-16T11:06:54.310Z,1014.17
2023-04-16T11:07:54.304Z,1014.17
2023-04-16T11:08:55.217Z,1014.18
2023-04-16T11:09:54.314Z,1014.18
2023-04-16T11:10:54.323Z,1014.18
2023-04-16T11:11:54.274Z,1014.18
2023-04-16T11:12:54.244Z,1014.16
2023-04-16T11:13:54.249Z,1014.19
2023-04-16T11:14:54.230Z,1014.19
2023-04-16T11:15:54.281Z,1014.20
2023-04-16T11:16:54.200Z,1014.21
2023-04-16T11:17:54.253Z,1014.21
2023-04-16T11:18:56.339Z,1014.23
2023-04-16T11:19:54.174Z,1014.24
2023-04-16T11:20:54.187Z,1014.24
2023-04-16T11:21:54.150Z,1014.24
2023-04-16T11:22:54.147Z,1014.25
2023-04-16T11:23:54.127Z,1014.26
2023-04-16T11:24:54.122Z,1014.27
2023-04-16T11:25:54.129Z,1014.27
2023-04-16T11:26:54.108Z,1014.27
2023-04-16T11:27:54.098Z,1014.27
2023-04-16T11:28:54.084Z,1014.29
2023-04-16T11:29:54.107Z,1014.29
2023-04-16T11:30:54.228Z,1014.30
2023-04-16T11:31:54.082Z,1014.30
2023-04-16T11:32:54.055Z,1014.31
2023-04-16T11:33:54.028Z,1014.31
2023-04-16T11:34:54.033Z,1014.33
2023-04-16T11:35:54.012Z,1014.30
2023-04-16T11:36:54.068Z,1014.29
2023-04-16T11:37:54.017Z,1014.30
2023-04-16T11:38:53.989Z,1014.33
2023-04-16T11:39:54.020Z,1014.34
2023-04-16T11:40:53.961Z,1014.32
2023-04-16T11:41:53.949Z,1014.32
2023-04-16T11:42:53.930Z,1014.31
2023-04-16T11:43:53.929Z,1014.32
2023-04-16T11:44:53.945Z,1014.34
2023-04-16T11:45:53.912Z,1014.35
2023-04-16T11:46:53.944Z,1014.34
2023-04-16T11:47:53.911Z,1014.35
2023-04-16T11:48:53.886Z,1014.34
2023-04-16T11:49:53.883Z,1014.36
2023-04-16T11:50:53.850Z,1014.37
2023-04-16T11:51:53.856Z,1014.38
2023-04-16T11:52:53.822Z,1014.37
2023-04-16T11:53:53.825Z,1014.37
2023-04-16T11:54:53.853Z,1014.38
2023-04-16T11:55:53.811Z,1014.39
2023-04-16T11:56:53.804Z,1014.39
2023-04-16T11:57:53.783Z,1014.36
2023-04-16T11:58:53.762Z,1014.36
2023-04-16T12:00:02.315Z,1014.36
2023-04-16T12:00:53.863Z,1014.36
2023-04-16T12:01:53.798Z,1014.39
2023-04-16T12:02:54.175Z,1014.39
2023-04-16T12:03:54.020Z,1014.39
2023-04-16T12:04:53.884Z,1014.40